createdAt,value
2018-05-17T00:00:06.290Z,0
2018-05-17T00:01:14.928Z,0
2018-05-17T00:02:23.577Z,0
2018-05-17T00:03:32.748Z,0
2018-05-17T00:04:41.394Z,0
2018-05-17T00:05:50.034Z,0
2018-05-17T00:06:58.677Z,0
2018-05-17T00:08:07.309Z,0
2018-05-17T00:09:15.954Z,0
2018-05-17T00:10:24.610Z,0
2018-05-17T00:11:33.782Z,0
2018-05-17T00:12:42.431Z,0
2018-05-17T00:13:51.063Z,0
2018-05-17T00:14:59.711Z,0
2018-05-17T00:16:08.618Z,0
2018-05-17T00:17:17.266Z,0
2018-05-17T00:18:25.904Z,0
2018-05-17T00:19:34.546Z,0
2018-05-17T00:20:43.188Z,0
2018-05-17T00:21:51.836Z,0
2018-05-17T00:23:00.473Z,0
2018-05-17T00:24:09.117Z,0
2018-05-17T00:25:18.019Z,0
2018-05-17T00:26:26.934Z,0
2018-05-17T00:27:35.842Z,0
2018-05-17T00:28:44.483Z,0
2018-05-17T00:29:53.125Z,0
2018-05-17T00:31:02.027Z,0
2018-05-17T00:32:10.672Z,0
2018-05-17T00:33:19.315Z,0
2018-05-17T00:34:27.959Z,0
2018-05-17T00:35:36.597Z,0
2018-05-17T00:36:45.243Z,0
2018-05-17T00:37:53.884Z,0
2018-05-17T00:39:02.801Z,0
2018-05-17T00:40:11.441Z,0
2018-05-17T00:41:20.345Z,0
2018-05-17T00:42:28.988Z,0
2018-05-17T00:43:37.630Z,0
2018-05-17T00:44:46.528Z,0
2018-05-17T00:45:55.177Z,0
2018-05-17T00:47:04.082Z,0
2018-05-17T00:48:12.730Z,0
2018-05-17T00:49:21.369Z,0
2018-05-17T00:50:30.008Z,0
2018-05-17T00:51:38.649Z,0
2018-05-17T00:52:47.293Z,0
2018-05-17T00:53:56.210Z,0
2018-05-17T00:55:05.129Z,0
2018-05-17T00:56:13.772Z,0
2018-05-17T00:57:22.413Z,0
2018-05-17T00:58:31.061Z,0
2018-05-17T00:59:39.965Z,0
2018-05-17T01:00:48.612Z,0
2018-05-17T01:01:57.517Z,0
2018-05-17T01:03:06.165Z,0
2018-05-17T01:04:14.807Z,0
2018-05-17T01:05:23.448Z,0
2018-05-17T01:06:32.090Z,0
2018-05-17T01:07:40.729Z,0
2018-05-17T01:08:49.372Z,0
2018-05-17T01:09:58.020Z,0
2018-05-17T01:11:06.665Z,0
2018-05-17T01:12:15.301Z,0
2018-05-17T01:13:23.944Z,0
2018-05-17T01:14:32.587Z,0
2018-05-17T01:15:41.504Z,0
2018-05-17T01:16:50.143Z,0
2018-05-17T01:17:58.781Z,0
2018-05-17T01:19:07.427Z,0
2018-05-17T01:20:16.064Z,0
2018-05-17T01:21:24.712Z,0
2018-05-17T01:22:33.900Z,0
2018-05-17T01:23:42.547Z,0
2018-05-17T01:24:51.448Z,0
2018-05-17T01:26:00.089Z,0
2018-05-17T01:27:08.735Z,0
2018-05-17T01:28:17.374Z,0
2018-05-17T01:29:26.018Z,0
2018-05-17T01:30:34.917Z,0
2018-05-17T01:31:43.568Z,0
2018-05-17T01:32:52.476Z,0
2018-05-17T01:34:01.118Z,0
2018-05-17T01:35:10.435Z,0
2018-05-17T01:36:19.084Z,0
2018-05-17T01:37:27.725Z,0
2018-05-17T01:38:36.372Z,0
2018-05-17T01:39:45.009Z,0
2018-05-17T01:40:53.656Z,0
2018-05-17T01:42:02.311Z,0
2018-05-17T01:43:10.951Z,0
2018-05-17T01:44:19.597Z,0
2018-05-17T01:45:28.238Z,0
2018-05-17T01:46:36.881Z,0
2018-05-17T01:47:45.524Z,0
2018-05-17T01:48:54.171Z,0
2018-05-17T01:50:02.812Z,0
2018-05-17T01:51:11.722Z,0
2018-05-17T01:52:20.367Z,0
2018-05-17T01:53:29.017Z,0
2018-05-17T01:54:37.654Z,0
2018-05-17T01:55:46.299Z,0
2018-05-17T01:56:54.937Z,0
2018-05-17T01:58:04.123Z,0
2018-05-17T01:59:12.761Z,0
2018-05-17T02:00:21.402Z,0
2018-05-17T02:01:30.043Z,0
2018-05-17T02:02:38.683Z,0
2018-05-17T02:03:47.597Z,0
2018-05-17T02:04:56.239Z,0
2018-05-17T02:06:05.146Z,0
2018-05-17T02:07:13.785Z,0
2018-05-17T02:08:22.699Z,0
2018-05-17T02:09:31.342Z,0
2018-05-17T02:10:39.989Z,0
2018-05-17T02:11:48.625Z,0
2018-05-17T02:12:57.286Z,0
2018-05-17T02:14:05.919Z,0
2018-05-17T02:15:14.825Z,0
2018-05-17T02:16:23.459Z,0
2018-05-17T02:17:32.103Z,0
2018-05-17T02:18:41.019Z,0
2018-05-17T02:19:49.927Z,0
2018-05-17T02:20:58.573Z,0
2018-05-17T02:22:07.205Z,0
2018-05-17T02:23:15.854Z,0
2018-05-17T02:24:24.489Z,0
2018-05-17T02:25:33.139Z,0
2018-05-17T02:26:41.773Z,0
2018-05-17T02:27:50.427Z,0
2018-05-17T02:28:59.326Z,0
2018-05-17T02:30:08.079Z,0
2018-05-17T02:31:16.624Z,0
2018-05-17T02:32:25.274Z,0
2018-05-17T02:33:33.919Z,0
2018-05-17T02:34:42.847Z,0
2018-05-17T02:35:52.008Z,0
2018-05-17T02:37:00.647Z,0
2018-05-17T02:38:09.289Z,0
2018-05-17T02:39:18.465Z,0
2018-05-17T02:40:27.117Z,0
2018-05-17T02:41:36.019Z,0
2018-05-17T02:42:44.951Z,0
2018-05-17T02:43:53.585Z,0
2018-05-17T02:45:02.242Z,0
2018-05-17T02:46:11.420Z,0
2018-05-17T02:47:20.334Z,0
2018-05-17T02:48:28.970Z,0
2018-05-17T02:49:37.623Z,0
2018-05-17T02:50:46.265Z,0
2018-05-17T02:51:55.179Z,0
2018-05-17T02:53:03.819Z,0
2018-05-17T02:54:12.730Z,0
2018-05-17T02:55:21.892Z,0
2018-05-17T02:56:30.583Z,0
2018-05-17T02:57:39.415Z,0
2018-05-17T02:58:48.354Z,0
2018-05-17T02:59:57.005Z,0
2018-05-17T03:01:05.914Z,0
2018-05-17T03:02:15.161Z,0
2018-05-17T03:03:23.796Z,0
2018-05-17T03:04:32.446Z,0
2018-05-17T03:05:41.085Z,0
2018-05-17T03:06:49.736Z,0
2018-05-17T03:07:58.635Z,0
2018-05-17T03:09:07.283Z,0
2018-05-17T03:10:15.932Z,0
2018-05-17T03:11:24.583Z,0
2018-05-17T03:12:33.225Z,0
2018-05-17T03:13:41.866Z,0
2018-05-17T03:14:50.504Z,0
2018-05-17T03:15:59.144Z,0
2018-05-17T03:17:07.799Z,0
2018-05-17T03:18:16.435Z,0
2018-05-17T03:19:25.082Z,0
2018-05-17T03:20:33.722Z,0
2018-05-17T03:21:42.372Z,0
2018-05-17T03:22:51.014Z,0
2018-05-17T03:23:59.927Z,0
2018-05-17T03:25:08.561Z,0
2018-05-17T03:26:17.211Z,0
2018-05-17T03:27:25.850Z,0
2018-05-17T03:28:34.494Z,0
2018-05-17T03:29:43.129Z,0
2018-05-17T03:30:52.042Z,0
2018-05-17T03:32:00.701Z,0
2018-05-17T03:33:09.346Z,0
2018-05-17T03:34:17.991Z,0
2018-05-17T03:35:26.622Z,0
2018-05-17T03:36:35.541Z,0
2018-05-17T03:37:44.445Z,5
2018-05-17T03:38:53.356Z,5
2018-05-17T03:40:01.995Z,5
2018-05-17T03:41:10.647Z,5
2018-05-17T03:42:19.279Z,5
2018-05-17T03:43:27.933Z,5
2018-05-17T03:44:36.566Z,5
2018-05-17T03:45:45.210Z,5
2018-05-17T03:46:53.849Z,5
2018-05-17T03:48:02.505Z,5
2018-05-17T03:49:11.144Z,5
2018-05-17T03:50:19.781Z,5
2018-05-17T03:51:28.419Z,5
2018-05-17T03:52:37.064Z,5
2018-05-17T03:53:45.713Z,10
2018-05-17T03:54:54.351Z,10
2018-05-17T03:56:03.001Z,10
2018-05-17T03:57:11.903Z,10
2018-05-17T03:58:20.553Z,10
2018-05-17T03:59:29.187Z,10
2018-05-17T04:00:37.834Z,10
2018-05-17T04:01:46.465Z,10
2018-05-17T04:02:55.384Z,10
2018-05-17T04:04:04.285Z,10
2018-05-17T04:05:13.125Z,10
2018-05-17T04:06:21.563Z,15
2018-05-17T04:07:30.207Z,15
2018-05-17T04:08:38.936Z,15
2018-05-17T04:09:47.495Z,15
2018-05-17T04:10:56.139Z,20
2018-05-17T04:12:04.780Z,20
2018-05-17T04:13:13.422Z,20
2018-05-17T04:14:22.063Z,20
2018-05-17T04:15:30.709Z,20
2018-05-17T04:16:39.348Z,20
2018-05-17T04:17:47.990Z,20
2018-05-17T04:18:56.633Z,20
2018-05-17T04:20:05.282Z,20
2018-05-17T04:21:13.919Z,20
2018-05-17T04:22:22.562Z,20
2018-05-17T04:23:31.200Z,20
2018-05-17T04:24:39.847Z,20
2018-05-17T04:25:48.487Z,20
2018-05-17T04:26:57.130Z,20
2018-05-17T04:28:05.772Z,25
2018-05-17T04:29:14.442Z,25
2018-05-17T04:30:23.058Z,20
2018-05-17T04:31:31.699Z,20
2018-05-17T04:32:40.341Z,25
2018-05-17T04:33:48.981Z,30
2018-05-17T04:34:57.633Z,35
2018-05-17T04:36:06.538Z,35
2018-05-17T04:37:15.443Z,35
2018-05-17T04:38:24.084Z,40
2018-05-17T04:39:32.727Z,40
2018-05-17T04:40:41.367Z,45
2018-05-17T04:41:50.011Z,50
2018-05-17T04:42:58.647Z,45
2018-05-17T04:44:07.295Z,50
2018-05-17T04:45:16.201Z,50
2018-05-17T04:46:24.847Z,50
2018-05-17T04:47:33.485Z,45
2018-05-17T04:48:42.124Z,50
2018-05-17T04:49:50.766Z,50
2018-05-17T04:50:59.406Z,50
2018-05-17T04:52:08.053Z,55
2018-05-17T04:53:16.955Z,55
2018-05-17T04:54:25.598Z,50
2018-05-17T04:55:34.238Z,55
2018-05-17T04:56:42.883Z,55
2018-05-17T04:57:51.521Z,60
2018-05-17T04:59:00.167Z,70
2018-05-17T05:00:09.081Z,80
2018-05-17T05:01:17.733Z,80
2018-05-17T05:02:26.372Z,80
2018-05-17T05:03:35.016Z,80
2018-05-17T05:04:43.655Z,75
2018-05-17T05:05:52.296Z,80
2018-05-17T05:07:00.944Z,90
2018-05-17T05:08:09.587Z,80
2018-05-17T05:09:18.228Z,70
2018-05-17T05:10:26.874Z,70
2018-05-17T05:11:35.511Z,75
2018-05-17T05:12:44.419Z,75
2018-05-17T05:13:53.062Z,80
2018-05-17T05:15:01.714Z,80
2018-05-17T05:16:10.349Z,85
2018-05-17T05:17:18.993Z,85
2018-05-17T05:18:27.633Z,85
2018-05-17T05:19:36.281Z,90
2018-05-17T05:20:45.188Z,90
2018-05-17T05:21:53.832Z,100
2018-05-17T05:23:02.481Z,95
2018-05-17T05:24:11.378Z,85
2018-05-17T05:25:20.048Z,85
2018-05-17T05:26:28.936Z,90
2018-05-17T05:27:37.575Z,85
2018-05-17T05:28:46.216Z,85
2018-05-17T05:29:54.861Z,90
2018-05-17T05:31:03.762Z,90
2018-05-17T05:32:12.673Z,90
2018-05-17T05:33:21.313Z,85
2018-05-17T05:34:30.232Z,95
2018-05-17T05:35:38.871Z,105
2018-05-17T05:36:47.513Z,95
2018-05-17T05:37:56.151Z,90
2018-05-17T05:39:04.796Z,90
2018-05-17T05:40:13.442Z,85
2018-05-17T05:41:22.089Z,90
2018-05-17T05:42:30.731Z,100
2018-05-17T05:43:39.368Z,100
2018-05-17T05:44:48.009Z,95
2018-05-17T05:45:57.187Z,100
2018-05-17T05:47:05.834Z,115
2018-05-17T05:48:14.469Z,115
2018-05-17T05:49:23.516Z,115
2018-05-17T05:50:32.152Z,110
2018-05-17T05:51:40.799Z,110
2018-05-17T05:52:49.437Z,105
2018-05-17T05:53:58.349Z,100
2018-05-17T05:55:06.993Z,105
2018-05-17T05:56:15.639Z,120
2018-05-17T05:57:24.280Z,130
2018-05-17T05:58:32.928Z,140
2018-05-17T05:59:41.567Z,135
2018-05-17T06:00:50.209Z,125
2018-05-17T06:01:58.856Z,130
2018-05-17T06:03:07.504Z,140
2018-05-17T06:04:16.412Z,140
2018-05-17T06:05:25.050Z,120
2018-05-17T06:06:33.705Z,120
2018-05-17T06:07:42.342Z,135
2018-05-17T06:08:50.989Z,135
2018-05-17T06:09:59.888Z,130
2018-05-17T06:11:08.542Z,120
2018-05-17T06:12:17.460Z,125
2018-05-17T06:13:26.110Z,135
2018-05-17T06:14:34.739Z,130
2018-05-17T06:15:43.385Z,125
2018-05-17T06:16:52.030Z,135
2018-05-17T06:18:00.938Z,140
2018-05-17T06:19:09.587Z,155
2018-05-17T06:20:18.225Z,140
2018-05-17T06:21:26.872Z,140
2018-05-17T06:22:35.511Z,145
2018-05-17T06:23:44.183Z,130
2018-05-17T06:24:52.795Z,120
2018-05-17T06:26:01.445Z,135
2018-05-17T06:27:10.083Z,125
2018-05-17T06:28:18.735Z,135
2018-05-17T06:29:27.369Z,140
2018-05-17T06:30:36.017Z,150
2018-05-17T06:31:44.659Z,155
2018-05-17T06:32:53.309Z,155
2018-05-17T06:34:01.954Z,160
2018-05-17T06:35:10.857Z,160
2018-05-17T06:36:19.498Z,175
2018-05-17T06:37:28.134Z,165
2018-05-17T06:38:36.785Z,170
2018-05-17T06:39:45.424Z,170
2018-05-17T06:40:54.340Z,180
2018-05-17T06:42:02.976Z,210
2018-05-17T06:43:11.637Z,220
2018-05-17T06:44:20.538Z,235
2018-05-17T06:45:29.185Z,220
2018-05-17T06:46:37.819Z,215
2018-05-17T06:47:46.475Z,200
2018-05-17T06:48:55.111Z,190
2018-05-17T06:50:03.758Z,205
2018-05-17T06:51:12.391Z,215
2018-05-17T06:52:21.043Z,225
2018-05-17T06:53:29.690Z,245
2018-05-17T06:54:38.336Z,240
2018-05-17T06:55:46.981Z,225
2018-05-17T06:56:55.616Z,235
2018-05-17T06:58:04.263Z,210
2018-05-17T06:59:12.902Z,225
2018-05-17T07:00:21.818Z,220
2018-05-17T07:01:30.453Z,200
2018-05-17T07:02:39.368Z,200
2018-05-17T07:03:48.274Z,200
2018-05-17T07:04:56.926Z,205
2018-05-17T07:06:05.568Z,190
2018-05-17T07:07:14.486Z,200
2018-05-17T07:08:23.126Z,205
2018-05-17T07:09:31.773Z,215
2018-05-17T07:10:40.417Z,240
2018-05-17T07:11:49.059Z,230
2018-05-17T07:12:57.971Z,210
2018-05-17T07:14:06.882Z,235
2018-05-17T07:15:15.527Z,290
2018-05-17T07:16:24.169Z,280
2018-05-17T07:17:32.816Z,270
2018-05-17T07:18:42.680Z,280
2018-05-17T07:19:51.878Z,270
2018-05-17T07:21:00.789Z,280
2018-05-17T07:22:09.433Z,300
2018-05-17T07:23:18.073Z,305
2018-05-17T07:24:26.722Z,335
2018-05-17T07:25:35.366Z,290
2018-05-17T07:26:44.013Z,295
2018-05-17T07:27:52.653Z,270
2018-05-17T07:29:01.300Z,280
2018-05-17T07:30:09.953Z,295
2018-05-17T07:31:18.917Z,280
2018-05-17T07:32:27.552Z,255
2018-05-17T07:33:36.193Z,215
2018-05-17T07:34:45.105Z,185
2018-05-17T07:35:53.752Z,180
2018-05-17T07:37:02.402Z,195
2018-05-17T07:38:11.655Z,195
2018-05-17T07:39:20.319Z,230
2018-05-17T07:40:28.864Z,270
2018-05-17T07:41:37.514Z,245
2018-05-17T07:42:46.154Z,255
2018-05-17T07:43:54.800Z,265
2018-05-17T07:45:03.456Z,265
2018-05-17T07:46:12.372Z,245
2018-05-17T07:47:21.109Z,260
2018-05-17T07:48:29.659Z,250
2018-05-17T07:49:38.301Z,240
2018-05-17T07:50:46.945Z,240
2018-05-17T07:51:55.864Z,265
2018-05-17T07:53:04.508Z,275
2018-05-17T07:54:13.151Z,285
2018-05-17T07:55:21.794Z,305
2018-05-17T07:56:30.447Z,305
2018-05-17T07:57:39.088Z,290
2018-05-17T07:58:47.738Z,300
2018-05-17T07:59:56.641Z,340
2018-05-17T08:01:05.290Z,330
2018-05-17T08:02:13.933Z,340
2018-05-17T08:03:22.581Z,325
2018-05-17T08:04:31.218Z,335
2018-05-17T08:05:40.135Z,320
2018-05-17T08:06:48.789Z,310
2018-05-17T08:07:57.437Z,305
2018-05-17T08:09:06.085Z,300
2018-05-17T08:10:14.722Z,305
2018-05-17T08:11:23.371Z,325
2018-05-17T08:12:32.277Z,340
2018-05-17T08:13:40.932Z,305
2018-05-17T08:14:49.568Z,270
2018-05-17T08:15:58.217Z,265
2018-05-17T08:17:06.865Z,295
2018-05-17T08:18:15.513Z,320
2018-05-17T08:19:24.149Z,335
2018-05-17T08:20:32.799Z,310
2018-05-17T08:21:41.438Z,305
2018-05-17T08:22:50.101Z,325
2018-05-17T08:23:58.738Z,330
2018-05-17T08:25:07.378Z,325
2018-05-17T08:26:16.020Z,310
2018-05-17T08:27:24.662Z,310
2018-05-17T08:28:33.316Z,320
2018-05-17T08:29:41.957Z,325
2018-05-17T08:30:50.612Z,315
2018-05-17T08:31:59.249Z,295
2018-05-17T08:33:07.897Z,260
2018-05-17T08:34:16.536Z,250
2018-05-17T08:35:25.449Z,265
2018-05-17T08:36:34.759Z,320
2018-05-17T08:37:43.256Z,335
2018-05-17T08:38:51.899Z,345
2018-05-17T08:40:00.814Z,265
2018-05-17T08:41:09.447Z,220
2018-05-17T08:42:18.095Z,275
2018-05-17T08:43:26.744Z,255
2018-05-17T08:44:35.659Z,255
2018-05-17T08:45:44.739Z,275
2018-05-17T08:46:53.270Z,310
2018-05-17T08:48:01.922Z,345
2018-05-17T08:49:10.562Z,370
2018-05-17T08:50:19.216Z,340
2018-05-17T08:51:27.856Z,310
2018-05-17T08:52:36.508Z,345
2018-05-17T08:53:45.145Z,345
2018-05-17T08:54:53.800Z,340
2018-05-17T08:56:02.439Z,310
2018-05-17T08:57:11.094Z,285
2018-05-17T08:58:19.731Z,245
2018-05-17T08:59:28.389Z,245
2018-05-17T09:00:37.294Z,145
2018-05-17T09:01:45.930Z,205
2018-05-17T09:02:54.589Z,195
2018-05-17T09:04:03.235Z,190
2018-05-17T09:05:11.871Z,190
2018-05-17T09:06:20.524Z,190
2018-05-17T09:07:29.165Z,200
2018-05-17T09:08:37.821Z,195
2018-05-17T09:09:46.469Z,195
2018-05-17T09:10:55.131Z,200
2018-05-17T09:12:04.043Z,215
2018-05-17T09:13:12.706Z,220
2018-05-17T09:14:21.343Z,205
2018-05-17T09:15:29.987Z,205
2018-05-17T09:16:38.632Z,200
2018-05-17T09:17:47.286Z,205
2018-05-17T09:18:55.934Z,205
2018-05-17T09:20:04.655Z,185
2018-05-17T09:21:13.226Z,185
2018-05-17T09:22:21.870Z,220
2018-05-17T09:23:30.787Z,245
2018-05-17T09:24:39.428Z,265
2018-05-17T09:25:48.624Z,240
2018-05-17T09:26:57.256Z,255
2018-05-17T09:28:06.184Z,250
2018-05-17T09:29:15.151Z,255
2018-05-17T09:30:24.587Z,275
2018-05-17T09:31:33.487Z,315
2018-05-17T09:32:42.143Z,330
2018-05-17T09:33:50.785Z,390
2018-05-17T09:34:59.697Z,350
2018-05-17T09:36:08.341Z,360
2018-05-17T09:37:17.253Z,380
2018-05-17T09:38:25.904Z,315
2018-05-17T09:39:34.814Z,275
2018-05-17T09:40:43.461Z,245
2018-05-17T09:41:52.100Z,265
2018-05-17T09:43:00.749Z,295
2018-05-17T09:44:09.398Z,270
2018-05-17T09:45:18.316Z,255
2018-05-17T09:46:26.948Z,260
2018-05-17T09:47:35.718Z,235
2018-05-17T09:48:44.524Z,215
2018-05-17T09:49:53.174Z,180
2018-05-17T09:51:01.810Z,230
2018-05-17T09:52:10.458Z,225
2018-05-17T09:53:19.105Z,210
2018-05-17T09:54:27.760Z,200
2018-05-17T09:55:36.404Z,220
2018-05-17T09:56:45.046Z,205
2018-05-17T09:57:53.690Z,160
2018-05-17T09:59:02.336Z,195
2018-05-17T10:00:11.256Z,195
2018-05-17T10:01:20.169Z,195
2018-05-17T10:02:28.813Z,195
2018-05-17T10:03:37.456Z,195
2018-05-17T10:04:46.106Z,195
2018-05-17T10:05:54.752Z,195
2018-05-17T10:07:03.404Z,200
2018-05-17T10:08:12.041Z,210
2018-05-17T10:09:20.695Z,215
2018-05-17T10:10:29.337Z,210
2018-05-17T10:11:37.984Z,220
2018-05-17T10:12:46.625Z,220
2018-05-17T10:13:55.275Z,245
2018-05-17T10:15:03.932Z,250
2018-05-17T10:16:12.577Z,305
2018-05-17T10:17:21.231Z,285
2018-05-17T10:18:29.873Z,250
2018-05-17T10:19:38.786Z,205
2018-05-17T10:20:47.433Z,160
2018-05-17T10:21:56.083Z,230
2018-05-17T10:23:05.582Z,210
2018-05-17T10:24:14.501Z,205
2018-05-17T10:25:23.142Z,210
2018-05-17T10:26:32.062Z,210
2018-05-17T10:27:40.709Z,210
2018-05-17T10:28:49.370Z,205
2018-05-17T10:29:58.053Z,205
2018-05-17T10:31:06.653Z,205
2018-05-17T10:32:15.573Z,200
2018-05-17T10:33:24.220Z,200
2018-05-17T10:34:33.133Z,205
2018-05-17T10:35:42.039Z,200
2018-05-17T10:36:50.691Z,205
2018-05-17T10:37:59.599Z,205
2018-05-17T10:39:08.246Z,210
2018-05-17T10:40:16.888Z,210
2018-05-17T10:41:25.538Z,185
2018-05-17T10:42:34.185Z,215
2018-05-17T10:43:43.099Z,215
2018-05-17T10:44:51.744Z,225
2018-05-17T10:46:00.390Z,215
2018-05-17T10:47:09.043Z,210
2018-05-17T10:48:17.987Z,205
2018-05-17T10:49:26.624Z,210
2018-05-17T10:50:35.653Z,205
2018-05-17T10:51:44.300Z,205
2018-05-17T10:52:52.949Z,205
2018-05-17T10:54:01.596Z,205
2018-05-17T10:55:10.241Z,205
2018-05-17T10:56:18.889Z,195
2018-05-17T10:57:28.074Z,205
2018-05-17T10:58:36.722Z,205
2018-05-17T10:59:45.374Z,205
2018-05-17T11:00:54.017Z,205
2018-05-17T11:02:02.667Z,205
2018-05-17T11:03:11.306Z,205
2018-05-17T11:04:19.961Z,205
2018-05-17T11:05:28.606Z,210
2018-05-17T11:06:37.519Z,210
2018-05-17T11:07:46.157Z,210
2018-05-17T11:08:54.806Z,210
2018-05-17T11:10:03.455Z,205
2018-05-17T11:11:12.368Z,210
2018-05-17T11:12:21.018Z,210
2018-05-17T11:13:29.654Z,210
2018-05-17T11:14:38.565Z,220
2018-05-17T11:15:47.210Z,220
2018-05-17T11:16:55.866Z,240
2018-05-17T11:18:04.505Z,235
2018-05-17T11:19:13.154Z,230
2018-05-17T11:20:21.800Z,215
2018-05-17T11:21:30.457Z,210
2018-05-17T11:22:39.098Z,210
2018-05-17T11:23:47.742Z,210
2018-05-17T11:24:56.387Z,210
2018-05-17T11:26:05.045Z,210
2018-05-17T11:27:13.687Z,210
2018-05-17T11:28:22.336Z,205
2018-05-17T11:29:30.975Z,210
2018-05-17T11:30:39.620Z,205
2018-05-17T11:31:48.275Z,210
2018-05-17T11:32:56.969Z,205
2018-05-17T11:34:05.572Z,205
2018-05-17T11:35:14.210Z,210
2018-05-17T11:36:22.868Z,205
2018-05-17T11:37:31.511Z,210
2018-05-17T11:38:40.164Z,210
2018-05-17T11:39:48.799Z,210
2018-05-17T11:40:57.457Z,210
2018-05-17T11:42:06.104Z,210
2018-05-17T11:43:14.755Z,215
2018-05-17T11:44:23.391Z,215
2018-05-17T11:45:32.039Z,210
2018-05-17T11:46:40.689Z,215
2018-05-17T11:47:49.338Z,210
2018-05-17T11:48:57.988Z,210
2018-05-17T11:50:06.626Z,215
2018-05-17T11:51:15.278Z,205
2018-05-17T11:52:23.921Z,210
2018-05-17T11:53:32.579Z,210
2018-05-17T11:54:41.477Z,210
2018-05-17T11:55:50.127Z,210
2018-05-17T11:56:58.772Z,210
2018-05-17T11:58:07.698Z,210
2018-05-17T11:59:16.337Z,210
2018-05-17T12:00:25.256Z,210
2018-05-17T12:01:34.271Z,205
2018-05-17T12:02:42.834Z,210
2018-05-17T12:03:51.477Z,210
2018-05-17T12:05:00.125Z,210
2018-05-17T12:06:08.771Z,205
2018-05-17T12:07:17.724Z,210
2018-05-17T12:08:26.651Z,210
2018-05-17T12:09:35.311Z,215
2018-05-17T12:10:43.951Z,210
2018-05-17T12:11:52.595Z,210
2018-05-17T12:13:01.253Z,205
2018-05-17T12:14:10.162Z,205
2018-05-17T12:15:18.816Z,205
2018-05-17T12:16:27.737Z,205
2018-05-17T12:17:36.385Z,205
2018-05-17T12:18:45.044Z,205
2018-05-17T12:19:53.960Z,205
2018-05-17T12:21:02.603Z,205
2018-05-17T12:22:11.252Z,205
2018-05-17T12:23:19.899Z,205
2018-05-17T12:24:28.553Z,210
2018-05-17T12:25:37.198Z,205
2018-05-17T12:26:46.110Z,210
2018-05-17T12:27:55.019Z,210
2018-05-17T12:29:03.665Z,205
2018-05-17T12:30:12.318Z,210
2018-05-17T12:31:20.960Z,210
2018-05-17T12:32:29.873Z,215
2018-05-17T12:33:38.787Z,220
2018-05-17T12:34:47.704Z,215
2018-05-17T12:35:56.350Z,215
2018-05-17T12:37:05.084Z,215
2018-05-17T12:38:13.641Z,215
2018-05-17T12:39:22.294Z,215
2018-05-17T12:40:30.937Z,210
2018-05-17T12:41:39.583Z,205
2018-05-17T12:42:48.248Z,205
2018-05-17T12:43:57.166Z,205
2018-05-17T12:45:05.823Z,205
2018-05-17T12:46:14.468Z,210
2018-05-17T12:47:23.119Z,220
2018-05-17T12:48:32.029Z,220
2018-05-17T12:49:40.947Z,220
2018-05-17T12:50:49.639Z,215
2018-05-17T12:51:58.244Z,210
2018-05-17T12:53:06.889Z,210
2018-05-17T12:54:15.800Z,210
2018-05-17T12:55:24.446Z,205
2018-05-17T12:56:33.098Z,205
2018-05-17T12:57:42.012Z,205
2018-05-17T12:58:50.727Z,210
2018-05-17T12:59:59.301Z,210
2018-05-17T13:01:07.949Z,210
2018-05-17T13:02:16.597Z,210
2018-05-17T13:03:25.780Z,215
2018-05-17T13:04:34.695Z,215
2018-05-17T13:05:43.604Z,220
2018-05-17T13:06:52.300Z,220
2018-05-17T13:08:00.906Z,215
2018-05-17T13:09:09.826Z,215
2018-05-17T13:10:18.475Z,210
2018-05-17T13:11:27.118Z,215
2018-05-17T13:12:36.037Z,215
2018-05-17T13:13:44.687Z,220
2018-05-17T13:14:53.338Z,215
2018-05-17T13:16:01.980Z,215
2018-05-17T13:17:10.632Z,215
2018-05-17T13:18:19.280Z,220
2018-05-17T13:19:27.929Z,220
2018-05-17T13:20:36.579Z,220
2018-05-17T13:21:45.484Z,220
2018-05-17T13:22:54.135Z,220
2018-05-17T13:24:02.781Z,220
2018-05-17T13:25:11.698Z,215
2018-05-17T13:26:20.342Z,215
2018-05-17T13:27:28.990Z,215
2018-05-17T13:28:37.641Z,215
2018-05-17T13:29:46.297Z,215
2018-05-17T13:30:55.204Z,215
2018-05-17T13:32:03.854Z,215
2018-05-17T13:33:12.763Z,215
2018-05-17T13:34:21.691Z,215
2018-05-17T13:35:30.337Z,215
2018-05-17T13:36:39.245Z,220
2018-05-17T13:37:47.892Z,215
2018-05-17T13:38:56.539Z,215
2018-05-17T13:40:05.191Z,215
2018-05-17T13:41:13.840Z,215
2018-05-17T13:42:22.489Z,220
2018-05-17T13:43:31.721Z,215
2018-05-17T13:44:40.376Z,215
2018-05-17T13:45:49.026Z,220
2018-05-17T13:46:57.672Z,215
2018-05-17T13:48:06.756Z,210
2018-05-17T13:49:15.497Z,215
2018-05-17T13:50:24.412Z,215
2018-05-17T13:51:33.060Z,210
2018-05-17T13:52:41.704Z,215
2018-05-17T13:53:50.356Z,210
2018-05-17T13:54:59.004Z,210
2018-05-17T13:56:07.656Z,210
2018-05-17T13:57:16.306Z,210
2018-05-17T13:58:24.945Z,205
2018-05-17T13:59:33.626Z,205
2018-05-17T14:00:42.269Z,210
2018-05-17T14:01:50.936Z,210
2018-05-17T14:02:59.839Z,205
2018-05-17T14:04:08.491Z,215
2018-05-17T14:05:17.135Z,210
2018-05-17T14:06:25.790Z,205
2018-05-17T14:07:34.432Z,200
2018-05-17T14:08:43.083Z,205
2018-05-17T14:09:51.729Z,205
2018-05-17T14:11:00.668Z,195
2018-05-17T14:12:09.578Z,195
2018-05-17T14:13:18.483Z,195
2018-05-17T14:14:27.396Z,195
2018-05-17T14:15:37.014Z,195
2018-05-17T14:16:45.660Z,195
2018-05-17T14:17:54.304Z,195
2018-05-17T14:19:02.956Z,190
2018-05-17T14:20:11.595Z,190
2018-05-17T14:21:20.249Z,190
2018-05-17T14:22:28.892Z,185
2018-05-17T14:23:37.809Z,185
2018-05-17T14:24:46.727Z,185
2018-05-17T14:25:55.388Z,185
2018-05-17T14:27:04.040Z,185
2018-05-17T14:28:12.685Z,190
2018-05-17T14:29:21.583Z,185
2018-05-17T14:30:30.250Z,185
2018-05-17T14:31:38.943Z,185
2018-05-17T14:32:47.545Z,185
2018-05-17T14:33:56.455Z,185
2018-05-17T14:35:05.096Z,185
2018-05-17T14:36:13.746Z,185
2018-05-17T14:37:22.390Z,185
2018-05-17T14:38:31.048Z,180
2018-05-17T14:39:39.684Z,180
2018-05-17T14:40:48.336Z,180
2018-05-17T14:41:56.980Z,180
2018-05-17T14:43:05.907Z,180
2018-05-17T14:44:15.075Z,180
2018-05-17T14:45:23.727Z,180
2018-05-17T14:46:32.371Z,185
2018-05-17T14:47:41.030Z,180
2018-05-17T14:48:49.680Z,185
2018-05-17T14:49:58.590Z,180
2018-05-17T14:51:07.234Z,180
2018-05-17T14:52:15.883Z,175
2018-05-17T14:53:24.551Z,175
2018-05-17T14:54:33.192Z,170
2018-05-17T14:55:41.843Z,170
2018-05-17T14:56:50.485Z,170
2018-05-17T14:57:59.135Z,170
2018-05-17T14:59:08.315Z,165
2018-05-17T15:00:17.228Z,155
2018-05-17T15:01:25.874Z,170
2018-05-17T15:02:34.785Z,165
2018-05-17T15:03:43.435Z,145
2018-05-17T15:04:52.350Z,160
2018-05-17T15:06:01.266Z,145
2018-05-17T15:07:10.188Z,165
2018-05-17T15:08:18.840Z,165
2018-05-17T15:09:27.493Z,165
2018-05-17T15:10:36.142Z,165
2018-05-17T15:11:44.787Z,170
2018-05-17T15:12:53.436Z,170
2018-05-17T15:14:02.122Z,170
2018-05-17T15:15:10.750Z,180
2018-05-17T15:16:19.658Z,170
2018-05-17T15:17:28.305Z,170
2018-05-17T15:18:37.217Z,165
2018-05-17T15:19:46.141Z,160
2018-05-17T15:20:54.778Z,160
2018-05-17T15:22:03.428Z,160
2018-05-17T15:23:12.075Z,165
2018-05-17T15:24:20.738Z,165
2018-05-17T15:25:29.385Z,165
2018-05-17T15:26:38.027Z,165
2018-05-17T15:27:46.937Z,165
2018-05-17T15:28:55.846Z,165
2018-05-17T15:30:04.867Z,165
2018-05-17T15:31:13.515Z,165
2018-05-17T15:32:22.163Z,165
2018-05-17T15:33:30.806Z,170
2018-05-17T15:34:39.463Z,170
2018-05-17T15:35:48.634Z,170
2018-05-17T15:36:57.282Z,175
2018-05-17T15:38:05.925Z,170
2018-05-17T15:39:14.578Z,180
2018-05-17T15:40:23.222Z,175
2018-05-17T15:41:32.144Z,185
2018-05-17T15:42:40.784Z,200
2018-05-17T15:43:49.438Z,205
2018-05-17T15:44:58.352Z,200
2018-05-17T15:46:07.003Z,190
2018-05-17T15:47:15.652Z,180
2018-05-17T15:48:24.294Z,190
2018-05-17T15:49:32.941Z,200
2018-05-17T15:50:41.588Z,190
2018-05-17T15:51:50.241Z,175
2018-05-17T15:52:58.883Z,165
2018-05-17T15:54:07.534Z,145
2018-05-17T15:55:16.193Z,155
2018-05-17T15:56:24.847Z,155
2018-05-17T15:57:33.486Z,155
2018-05-17T15:58:42.402Z,160
2018-05-17T15:59:51.048Z,170
2018-05-17T16:00:59.971Z,180
2018-05-17T16:02:08.613Z,175
2018-05-17T16:03:17.257Z,170
2018-05-17T16:04:25.902Z,170
2018-05-17T16:05:34.545Z,175